West Point, NE

11:32 PM CDT on August 29, 2015 (GMT -0500)
West Point Public Schools Alternative Energy Building | | Change Station
CLOSE
Current Station
Personal Weather Station
Location: West Point, NE
Elevation: 1575 ft
Nearby Weather Stations

Elev 1575 ft 41.84 °N, 96.69 °W | Updated 1 minute ago

Partly Cloudy
Partly Cloudy
62.0 °F
Feels Like 62.0 °F
N
5.0
Wind Variable Wind from South
Gusts 8.0 mph

Today
High -- | Low -- °F
--% Chance of Precip.
Yesterday
High -- | Low -- °F
Precip. -- in
6:49 AM 8:05 PM
Full, 100% visible
Pressure 30.03 in
Visibility 8.0 miles
Clouds Overcast 1300 ft
Dew Point 61 °F
Humidity 95%
Rainfall 0.00 in
Snow Depth Not available.
UV 0 out of 12
Pollen 9.20 out of 12
Air Quality Not available.
Flu Activity Not available.
METAR KTQE 300354Z AUTO 16003KT 8SM OVC013 16/16 A3005 RMK AO2 SLP168 T01610161
Pressure 30.03 in
Visibility 8.0 miles
Clouds Overcast 1300 ft
Dew Point 61 °F
Humidity 95%
Rainfall 0.00 in
Snow Depth Not available.
UV 0 out of 12
Pollen 9.20 out of 12
Air Quality Not available.
Flu Activity Not available.
METAR KTQE 300354Z AUTO 16003KT 8SM OVC013 16/16 A3005 RMK AO2 SLP168 T01610161

10-Day Weather Forecast

×

Almanac

Astronomy

Aug. 29, 2015 Rise Set
Actual Time
Civil Twilight
Nautical Twilight
Astronomical Twilight
Moon
Length of Visible Light
Length of Day
Tomorrow will be .
, % of the Moon is Illuminated

Today's Extremes

State Highs State Lows

Community

WunderPhotos

Upload Photos

1,850,886 photos uploaded!

WunderBlogs® & News

Nearby

Air Quality

  Air Quality AQ Index Pollutant
Not available.

Snow Depth

Station Depth Elevation

Earthquake Activity

City Distance Mag. Time & Date
Minimum magnitude displayed is 2.5.

Coastal Water Temperatures

Place Temperature

Stations

Nearby Weather Stations

Station Location Temp. Windchill Dew Point Humidity Wind Precip. Elev Updated Type